Página principal
METAR-TAF:

METAR-TAF

Aeroportos :

Saint-Louis, Senegal

latitude: 16-03N, longitude: 016-27W, altura: 4 m

Observação actual do tempo

O boletim foi feito há 47 minutos, às 21:00 UTC
Vento 8 kt de norte
Temperatura 20°C
Humidade 68%
Pressão 1013 hPa
Visibilidade 10 km ou mais
sem nuvens abaixo de 1500 metros e sem cumulonimbus

METAR: GOSS 172100Z 36008KT CAVOK 20/14 Q1013

Hora: 21:47 (21:47 UTC)

Previsão

O boletim foi feito há 4 horas e 17 minutos, às 17:30 UTC
Previsão válida de 17 às 18 UTC a 18 às 18 UTC
Vento 10 kt de norte
Visibilidade 10 km ou mais
sem nuvens abaixo de 1500 metros e sem cumulonimbus

TAF: GOSS 171730Z 1718/1818 36010KT CAVOK

Observações e previsões do tempo de mais de 4000 aeroportos (mensagens METAR e TAF).

As estações disponíveis são os pontos amarelos e vermelhos sobre o mapa.

Mova o rato sobre o mapa para ver o nome da estação.

Depois clique no ponto para visualizar as observações e previsões meteorológicas.

Para alterar o mapa : clique nos botões verdes com uma cruz preta para aumentar o zoom; no botão verde com uma pitada de zoom; ou nas setas verdes para mapas adjacentes.


METAR-TAF: